sensor_id;sensor_type;location;lat;lon;timestamp;P1;durP1;ratioP1;P2;durP2;ratioP2
56653;SDS011;45096;52.302;4.634;2022-08-19T00:01:36;3.10;;;2.90;;
56653;SDS011;45096;52.302;4.634;2022-08-19T00:04:03;2.88;;;2.67;;
56653;SDS011;45096;52.302;4.634;2022-08-19T00:06:30;3.63;;;3.15;;
56653;SDS011;45096;52.302;4.634;2022-08-19T00:08:57;3.33;;;3.03;;
56653;SDS011;45096;52.302;4.634;2022-08-19T00:11:23;3.30;;;3.08;;
56653;SDS011;45096;52.302;4.634;2022-08-19T00:13:49;2.90;;;2.72;;
56653;SDS011;45096;52.302;4.634;2022-08-19T00:16:14;3.35;;;3.10;;
56653;SDS011;45096;52.302;4.634;2022-08-19T00:18:40;3.17;;;2.92;;
56653;SDS011;45096;52.302;4.634;2022-08-19T00:21:06;3.15;;;2.85;;
56653;SDS011;45096;52.302;4.634;2022-08-19T00:23:31;4.75;;;3.20;;
56653;SDS011;45096;52.302;4.634;2022-08-19T00:25:58;3.70;;;2.97;;
56653;SDS011;45096;52.302;4.634;2022-08-19T00:28:23;3.70;;;3.50;;
56653;SDS011;45096;52.302;4.634;2022-08-19T00:30:49;4.97;;;3.08;;
56653;SDS011;45096;52.302;4.634;2022-08-19T00:33:14;3.30;;;3.00;;
56653;SDS011;45096;52.302;4.634;2022-08-19T00:35:39;3.17;;;2.88;;
56653;SDS011;45096;52.302;4.634;2022-08-19T00:38:05;3.17;;;2.88;;
56653;SDS011;45096;52.302;4.634;2022-08-19T00:40:30;4.18;;;3.53;;
56653;SDS011;45096;52.302;4.634;2022-08-19T00:42:57;3.67;;;3.35;;
56653;SDS011;45096;52.302;4.634;2022-08-19T00:45:25;3.50;;;3.20;;
56653;SDS011;45096;52.302;4.634;2022-08-19T00:47:52;3.83;;;2.80;;
56653;SDS011;45096;52.302;4.634;2022-08-19T00:50:18;3.17;;;2.90;;
56653;SDS011;45096;52.302;4.634;2022-08-19T00:52:47;5.57;;;3.33;;
56653;SDS011;45096;52.302;4.634;2022-08-19T00:55:16;3.95;;;3.60;;
56653;SDS011;45096;52.302;4.634;2022-08-19T00:57:45;3.22;;;3.00;;
56653;SDS011;45096;52.302;4.634;2022-08-19T01:00:16;3.42;;;3.13;;
56653;SDS011;45096;52.302;4.634;2022-08-19T01:02:42;3.42;;;3.22;;
56653;SDS011;45096;52.302;4.634;2022-08-19T01:05:10;3.58;;;3.20;;
56653;SDS011;45096;52.302;4.634;2022-08-19T01:07:37;4.18;;;3.88;;
56653;SDS011;45096;52.302;4.634;2022-08-19T01:10:04;3.28;;;2.97;;
56653;SDS011;45096;52.302;4.634;2022-08-19T01:12:31;3.45;;;3.17;;
56653;SDS011;45096;52.302;4.634;2022-08-19T01:14:56;3.53;;;3.30;;
56653;SDS011;45096;52.302;4.634;2022-08-19T01:17:23;3.83;;;3.42;;
56653;SDS011;45096;52.302;4.634;2022-08-19T01:19:49;3.28;;;3.08;;
56653;SDS011;45096;52.302;4.634;2022-08-19T01:22:16;4.45;;;2.83;;
56653;SDS011;45096;52.302;4.634;2022-08-19T01:24:51;4.13;;;3.10;;
56653;SDS011;45096;52.302;4.634;2022-08-19T01:27:17;3.00;;;2.80;;
56653;SDS011;45096;52.302;4.634;2022-08-19T01:29:43;3.25;;;2.97;;
56653;SDS011;45096;52.302;4.634;2022-08-19T01:32:11;3.40;;;3.10;;
56653;SDS011;45096;52.302;4.634;2022-08-19T01:34:38;3.90;;;3.20;;
56653;SDS011;45096;52.302;4.634;2022-08-19T01:37:05;3.60;;;3.40;;
56653;SDS011;45096;52.302;4.634;2022-08-19T01:39:33;3.22;;;3.00;;
56653;SDS011;45096;52.302;4.634;2022-08-19T01:41:58;3.30;;;3.00;;
56653;SDS011;45096;52.302;4.634;2022-08-19T01:44:24;3.20;;;2.92;;
56653;SDS011;45096;52.302;4.634;2022-08-19T01:46:50;3.88;;;3.58;;
56653;SDS011;45096;52.302;4.634;2022-08-19T01:49:16;3.50;;;3.20;;
56653;SDS011;45096;52.302;4.634;2022-08-19T01:51:43;3.35;;;3.15;;
56653;SDS011;45096;52.302;4.634;2022-08-19T01:54:08;3.10;;;2.90;;
56653;SDS011;45096;52.302;4.634;2022-08-19T01:56:35;4.13;;;3.13;;
56653;SDS011;45096;52.302;4.634;2022-08-19T01:59:02;3.38;;;3.08;;
56653;SDS011;45096;52.302;4.634;2022-08-19T02:01:34;4.35;;;3.58;;
56653;SDS011;45096;52.302;4.634;2022-08-19T02:03:59;3.50;;;3.30;;
56653;SDS011;45096;52.302;4.634;2022-08-19T02:06:24;3.75;;;3.33;;
56653;SDS011;45096;52.302;4.634;2022-08-19T02:08:50;4.20;;;3.10;;
56653;SDS011;45096;52.302;4.634;2022-08-19T02:11:19;3.53;;;3.22;;
56653;SDS011;45096;52.302;4.634;2022-08-19T02:13:48;3.10;;;2.90;;
56653;SDS011;45096;52.302;4.634;2022-08-19T02:16:14;3.60;;;3.30;;
56653;SDS011;45096;52.302;4.634;2022-08-19T02:18:39;3.42;;;3.13;;
56653;SDS011;45096;52.302;4.634;2022-08-19T02:21:04;3.80;;;3.60;;
56653;SDS011;45096;52.302;4.634;2022-08-19T02:23:30;4.57;;;3.30;;
56653;SDS011;45096;52.302;4.634;2022-08-19T02:25:56;3.75;;;3.45;;
56653;SDS011;45096;52.302;4.634;2022-08-19T02:28:22;3.95;;;3.55;;
56653;SDS011;45096;52.302;4.634;2022-08-19T02:30:49;3.42;;;3.22;;
56653;SDS011;45096;52.302;4.634;2022-08-19T02:33:14;3.42;;;3.13;;
56653;SDS011;45096;52.302;4.634;2022-08-19T02:35:40;3.40;;;3.20;;
56653;SDS011;45096;52.302;4.634;2022-08-19T02:38:06;3.35;;;3.15;;
56653;SDS011;45096;52.302;4.634;2022-08-19T02:40:32;3.55;;;3.35;;
56653;SDS011;45096;52.302;4.634;2022-08-19T02:42:58;3.65;;;3.35;;
56653;SDS011;45096;52.302;4.634;2022-08-19T02:45:23;4.03;;;3.72;;
56653;SDS011;45096;52.302;4.634;2022-08-19T02:47:50;3.88;;;3.58;;
56653;SDS011;45096;52.302;4.634;2022-08-19T02:50:15;3.13;;;2.92;;
56653;SDS011;45096;52.302;4.634;2022-08-19T02:52:40;4.07;;;3.70;;
56653;SDS011;45096;52.302;4.634;2022-08-19T02:55:06;4.35;;;3.95;;
56653;SDS011;45096;52.302;4.634;2022-08-19T02:57:33;3.80;;;3.40;;
56653;SDS011;45096;52.302;4.634;2022-08-19T02:59:58;4.53;;;3.88;;
56653;SDS011;45096;52.302;4.634;2022-08-19T03:02:24;4.60;;;4.05;;
56653;SDS011;45096;52.302;4.634;2022-08-19T03:04:51;3.30;;;3.08;;
56653;SDS011;45096;52.302;4.634;2022-08-19T03:07:17;4.30;;;4.00;;
56653;SDS011;45096;52.302;4.634;2022-08-19T03:09:43;4.57;;;3.60;;
56653;SDS011;45096;52.302;4.634;2022-08-19T03:12:08;4.03;;;3.63;;
56653;SDS011;45096;52.302;4.634;2022-08-19T03:14:34;4.05;;;3.75;;
56653;SDS011;45096;52.302;4.634;2022-08-19T03:17:00;5.10;;;4.70;;
56653;SDS011;45096;52.302;4.634;2022-08-19T03:19:26;4.30;;;4.00;;
56653;SDS011;45096;52.302;4.634;2022-08-19T03:21:53;4.32;;;4.03;;
56653;SDS011;45096;52.302;4.634;2022-08-19T03:24:19;5.50;;;5.10;;
56653;SDS011;45096;52.302;4.634;2022-08-19T03:26:46;4.70;;;4.30;;
56653;SDS011;45096;52.302;4.634;2022-08-19T03:29:12;5.00;;;4.53;;
56653;SDS011;45096;52.302;4.634;2022-08-19T03:31:39;4.60;;;4.20;;
56653;SDS011;45096;52.302;4.634;2022-08-19T03:34:05;5.28;;;4.75;;
56653;SDS011;45096;52.302;4.634;2022-08-19T03:36:30;5.05;;;4.68;;
56653;SDS011;45096;52.302;4.634;2022-08-19T03:38:58;4.50;;;4.10;;
56653;SDS011;45096;52.302;4.634;2022-08-19T03:41:25;4.15;;;3.85;;
56653;SDS011;45096;52.302;4.634;2022-08-19T03:43:52;4.90;;;4.43;;
56653;SDS011;45096;52.302;4.634;2022-08-19T03:46:19;5.03;;;4.55;;
56653;SDS011;45096;52.302;4.634;2022-08-19T03:48:49;5.50;;;5.05;;
56653;SDS011;45096;52.302;4.634;2022-08-19T03:51:17;6.90;;;4.80;;
56653;SDS011;45096;52.302;4.634;2022-08-19T03:53:43;5.07;;;4.63;;
56653;SDS011;45096;52.302;4.634;2022-08-19T03:56:10;6.43;;;5.03;;
56653;SDS011;45096;52.302;4.634;2022-08-19T03:58:35;5.78;;;5.28;;
56653;SDS011;45096;52.302;4.634;2022-08-19T04:01:01;6.10;;;5.60;;
56653;SDS011;45096;52.302;4.634;2022-08-19T04:03:26;7.10;;;5.72;;
56653;SDS011;45096;52.302;4.634;2022-08-19T04:05:52;6.25;;;5.65;;
56653;SDS011;45096;52.302;4.634;2022-08-19T04:08:17;6.63;;;5.82;;
56653;SDS011;45096;52.302;4.634;2022-08-19T04:10:43;6.30;;;5.63;;
56653;SDS011;45096;52.302;4.634;2022-08-19T04:13:09;6.18;;;5.57;;
56653;SDS011;45096;52.302;4.634;2022-08-19T04:15:38;11.63;;;6.28;;
56653;SDS011;45096;52.302;4.634;2022-08-19T04:18:04;6.22;;;5.63;;
56653;SDS011;45096;52.302;4.634;2022-08-19T04:20:30;6.82;;;6.15;;
56653;SDS011;45096;52.302;4.634;2022-08-19T04:22:56;8.13;;;6.30;;
56653;SDS011;45096;52.302;4.634;2022-08-19T04:25:21;6.50;;;5.90;;
56653;SDS011;45096;52.302;4.634;2022-08-19T04:27:47;7.82;;;6.75;;
56653;SDS011;45096;52.302;4.634;2022-08-19T04:30:14;7.55;;;6.50;;
56653;SDS011;45096;52.302;4.634;2022-08-19T04:32:39;7.80;;;6.78;;
56653;SDS011;45096;52.302;4.634;2022-08-19T04:35:05;8.15;;;7.35;;
56653;SDS011;45096;52.302;4.634;2022-08-19T04:37:31;7.15;;;6.45;;
56653;SDS011;45096;52.302;4.634;2022-08-19T04:39:56;7.63;;;6.43;;
56653;SDS011;45096;52.302;4.634;2022-08-19T04:42:22;10.10;;;6.38;;
56653;SDS011;45096;52.302;4.634;2022-08-19T04:44:47;7.70;;;6.90;;
56653;SDS011;45096;52.302;4.634;2022-08-19T04:47:14;8.70;;;7.82;;
56653;SDS011;45096;52.302;4.634;2022-08-19T04:49:39;18.73;;;13.57;;
56653;SDS011;45096;52.302;4.634;2022-08-19T04:52:05;17.15;;;11.80;;
56653;SDS011;45096;52.302;4.634;2022-08-19T04:54:30;21.83;;;18.02;;
56653;SDS011;45096;52.302;4.634;2022-08-19T04:56:56;21.02;;;18.30;;
56653;SDS011;45096;52.302;4.634;2022-08-19T04:59:21;23.75;;;18.20;;
56653;SDS011;45096;52.302;4.634;2022-08-19T05:01:46;23.10;;;17.30;;
56653;SDS011;45096;52.302;4.634;2022-08-19T05:04:14;25.67;;;18.48;;
56653;SDS011;45096;52.302;4.634;2022-08-19T05:06:39;20.45;;;16.45;;
56653;SDS011;45096;52.302;4.634;2022-08-19T05:09:05;21.25;;;16.95;;
56653;SDS011;45096;52.302;4.634;2022-08-19T05:11:35;19.33;;;15.02;;
56653;SDS011;45096;52.302;4.634;2022-08-19T05:14:01;18.20;;;14.13;;
56653;SDS011;45096;52.302;4.634;2022-08-19T05:16:27;20.23;;;14.82;;
56653;SDS011;45096;52.302;4.634;2022-08-19T05:18:53;17.92;;;13.30;;
56653;SDS011;45096;52.302;4.634;2022-08-19T05:21:20;16.20;;;13.73;;
56653;SDS011;45096;52.302;4.634;2022-08-19T05:23:46;16.83;;;13.00;;
56653;SDS011;45096;52.302;4.634;2022-08-19T05:26:11;16.83;;;12.43;;
56653;SDS011;45096;52.302;4.634;2022-08-19T05:28:37;14.77;;;12.60;;
56653;SDS011;45096;52.302;4.634;2022-08-19T05:31:02;11.70;;;10.50;;
56653;SDS011;45096;52.302;4.634;2022-08-19T05:33:28;15.35;;;11.25;;
56653;SDS011;45096;52.302;4.634;2022-08-19T05:35:53;12.23;;;10.57;;
56653;SDS011;45096;52.302;4.634;2022-08-19T05:38:20;15.27;;;10.30;;
56653;SDS011;45096;52.302;4.634;2022-08-19T05:40:45;13.10;;;10.32;;
56653;SDS011;45096;52.302;4.634;2022-08-19T05:43:11;11.80;;;10.00;;
56653;SDS011;45096;52.302;4.634;2022-08-19T05:45:40;10.07;;;8.98;;
56653;SDS011;45096;52.302;4.634;2022-08-19T05:48:05;11.02;;;8.85;;
56653;SDS011;45096;52.302;4.634;2022-08-19T05:50:31;10.88;;;9.25;;
56653;SDS011;45096;52.302;4.634;2022-08-19T05:52:56;12.50;;;10.38;;
56653;SDS011;45096;52.302;4.634;2022-08-19T05:55:23;12.93;;;9.77;;
56653;SDS011;45096;52.302;4.634;2022-08-19T05:57:48;10.32;;;8.95;;
56653;SDS011;45096;52.302;4.634;2022-08-19T06:00:14;10.07;;;9.00;;
56653;SDS011;45096;52.302;4.634;2022-08-19T06:02:40;10.60;;;9.43;;
56653;SDS011;45096;52.302;4.634;2022-08-19T06:05:06;10.60;;;9.05;;
56653;SDS011;45096;52.302;4.634;2022-08-19T06:07:32;12.57;;;9.90;;
56653;SDS011;45096;52.302;4.634;2022-08-19T06:09:58;14.27;;;10.18;;
56653;SDS011;45096;52.302;4.634;2022-08-19T06:12:24;13.70;;;10.35;;
56653;SDS011;45096;52.302;4.634;2022-08-19T06:14:50;11.40;;;10.20;;
56653;SDS011;45096;52.302;4.634;2022-08-19T06:17:15;10.43;;;9.23;;
56653;SDS011;45096;52.302;4.634;2022-08-19T06:19:41;11.18;;;8.35;;
56653;SDS011;45096;52.302;4.634;2022-08-19T06:22:06;11.02;;;8.45;;
56653;SDS011;45096;52.302;4.634;2022-08-19T06:24:32;13.90;;;9.93;;
56653;SDS011;45096;52.302;4.634;2022-08-19T06:26:58;19.10;;;13.07;;
56653;SDS011;45096;52.302;4.634;2022-08-19T06:29:25;13.15;;;10.43;;
56653;SDS011;45096;52.302;4.634;2022-08-19T06:31:55;11.38;;;9.80;;
56653;SDS011;45096;52.302;4.634;2022-08-19T06:34:21;15.30;;;10.75;;
56653;SDS011;45096;52.302;4.634;2022-08-19T06:36:47;18.25;;;13.07;;
56653;SDS011;45096;52.302;4.634;2022-08-19T06:39:14;15.27;;;12.00;;
56653;SDS011;45096;52.302;4.634;2022-08-19T06:41:43;17.40;;;13.13;;
56653;SDS011;45096;52.302;4.634;2022-08-19T06:44:10;19.10;;;14.32;;
56653;SDS011;45096;52.302;4.634;2022-08-19T06:46:37;16.08;;;11.82;;
56653;SDS011;45096;52.302;4.634;2022-08-19T06:49:03;13.38;;;10.20;;
56653;SDS011;45096;52.302;4.634;2022-08-19T06:51:28;15.45;;;11.13;;
56653;SDS011;45096;52.302;4.634;2022-08-19T06:53:54;22.95;;;15.32;;
56653;SDS011;45096;52.302;4.634;2022-08-19T06:56:22;19.30;;;13.80;;
56653;SDS011;45096;52.302;4.634;2022-08-19T06:58:48;23.95;;;15.48;;
56653;SDS011;45096;52.302;4.634;2022-08-19T07:01:13;17.88;;;13.55;;
56653;SDS011;45096;52.302;4.634;2022-08-19T07:03:40;20.27;;;14.88;;
56653;SDS011;45096;52.302;4.634;2022-08-19T07:06:06;21.33;;;14.20;;
56653;SDS011;45096;52.302;4.634;2022-08-19T07:08:34;19.35;;;14.35;;
56653;SDS011;45096;52.302;4.634;2022-08-19T07:10:59;20.92;;;15.13;;
56653;SDS011;45096;52.302;4.634;2022-08-19T07:13:24;15.50;;;13.23;;
56653;SDS011;45096;52.302;4.634;2022-08-19T07:15:50;19.30;;;13.25;;
56653;SDS011;45096;52.302;4.634;2022-08-19T07:18:17;14.63;;;11.13;;
56653;SDS011;45096;52.302;4.634;2022-08-19T07:20:44;17.98;;;12.43;;
56653;SDS011;45096;52.302;4.634;2022-08-19T07:23:09;19.48;;;14.27;;
56653;SDS011;45096;52.302;4.634;2022-08-19T07:25:35;17.10;;;12.23;;
56653;SDS011;45096;52.302;4.634;2022-08-19T07:28:01;18.90;;;12.68;;
56653;SDS011;45096;52.302;4.634;2022-08-19T07:30:27;16.77;;;11.43;;
56653;SDS011;45096;52.302;4.634;2022-08-19T07:32:52;12.70;;;10.38;;
56653;SDS011;45096;52.302;4.634;2022-08-19T07:35:18;14.65;;;10.25;;
56653;SDS011;45096;52.302;4.634;2022-08-19T07:37:45;15.38;;;11.38;;
56653;SDS011;45096;52.302;4.634;2022-08-19T07:40:10;15.10;;;11.18;;
56653;SDS011;45096;52.302;4.634;2022-08-19T07:42:36;11.48;;;9.57;;
56653;SDS011;45096;52.302;4.634;2022-08-19T07:45:02;11.00;;;8.77;;
56653;SDS011;45096;52.302;4.634;2022-08-19T07:47:27;13.63;;;9.50;;
56653;SDS011;45096;52.302;4.634;2022-08-19T07:49:53;11.70;;;9.95;;
56653;SDS011;45096;52.302;4.634;2022-08-19T07:52:18;13.18;;;8.93;;
56653;SDS011;45096;52.302;4.634;2022-08-19T07:54:45;11.80;;;9.02;;
56653;SDS011;45096;52.302;4.634;2022-08-19T07:57:10;14.10;;;9.95;;
56653;SDS011;45096;52.302;4.634;2022-08-19T07:59:36;9.90;;;7.93;;
56653;SDS011;45096;52.302;4.634;2022-08-19T08:02:01;10.45;;;7.80;;
56653;SDS011;45096;52.302;4.634;2022-08-19T08:04:27;11.07;;;8.15;;
56653;SDS011;45096;52.302;4.634;2022-08-19T08:06:53;9.07;;;6.82;;
56653;SDS011;45096;52.302;4.634;2022-08-19T08:09:19;12.27;;;7.65;;
56653;SDS011;45096;52.302;4.634;2022-08-19T08:11:49;9.65;;;6.32;;
56653;SDS011;45096;52.302;4.634;2022-08-19T08:14:16;8.63;;;6.22;;
56653;SDS011;45096;52.302;4.634;2022-08-19T08:16:43;6.88;;;6.07;;
56653;SDS011;45096;52.302;4.634;2022-08-19T08:19:08;10.88;;;6.80;;
56653;SDS011;45096;52.302;4.634;2022-08-19T08:21:33;7.13;;;6.07;;
56653;SDS011;45096;52.302;4.634;2022-08-19T08:23:59;8.70;;;6.47;;
56653;SDS011;45096;52.302;4.634;2022-08-19T08:26:25;7.55;;;6.30;;
56653;SDS011;45096;52.302;4.634;2022-08-19T08:28:52;6.47;;;5.90;;
56653;SDS011;45096;52.302;4.634;2022-08-19T08:31:17;8.30;;;6.53;;
56653;SDS011;45096;52.302;4.634;2022-08-19T08:33:43;8.55;;;6.00;;
56653;SDS011;45096;52.302;4.634;2022-08-19T08:36:08;7.45;;;5.63;;
56653;SDS011;45096;52.302;4.634;2022-08-19T08:38:34;6.10;;;5.57;;
56653;SDS011;45096;52.302;4.634;2022-08-19T08:41:00;30.38;;;8.50;;
56653;SDS011;45096;52.302;4.634;2022-08-19T08:43:30;30.05;;;8.50;;
56653;SDS011;45096;52.302;4.634;2022-08-19T08:46:02;25.77;;;9.05;;
56653;SDS011;45096;52.302;4.634;2022-08-19T08:48:34;28.10;;;8.38;;
56653;SDS011;45096;52.302;4.634;2022-08-19T08:51:02;20.35;;;8.35;;
56653;SDS011;45096;52.302;4.634;2022-08-19T08:53:28;15.25;;;7.82;;
56653;SDS011;45096;52.302;4.634;2022-08-19T08:55:55;14.52;;;7.40;;
56653;SDS011;45096;52.302;4.634;2022-08-19T08:58:24;11.63;;;6.70;;
56653;SDS011;45096;52.302;4.634;2022-08-19T09:00:53;13.25;;;7.72;;
56653;SDS011;45096;52.302;4.634;2022-08-19T09:03:20;13.95;;;7.07;;
56653;SDS011;45096;52.302;4.634;2022-08-19T09:05:49;12.93;;;6.70;;
56653;SDS011;45096;52.302;4.634;2022-08-19T09:11:06;10.77;;;5.95;;
56653;SDS011;45096;52.302;4.634;2022-08-19T09:13:34;10.55;;;5.85;;
56653;SDS011;45096;52.302;4.634;2022-08-19T09:16:07;11.63;;;6.25;;
56653;SDS011;45096;52.302;4.634;2022-08-19T09:18:42;11.40;;;5.93;;
56653;SDS011;45096;52.302;4.634;2022-08-19T09:21:09;12.15;;;6.10;;
56653;SDS011;45096;52.302;4.634;2022-08-19T09:23:35;8.18;;;5.65;;
56653;SDS011;45096;52.302;4.634;2022-08-19T09:26:00;8.85;;;5.07;;
56653;SDS011;45096;52.302;4.634;2022-08-19T09:28:26;7.55;;;5.65;;
56653;SDS011;45096;52.302;4.634;2022-08-19T09:30:51;7.28;;;5.78;;
56653;SDS011;45096;52.302;4.634;2022-08-19T09:33:17;12.77;;;6.40;;
56653;SDS011;45096;52.302;4.634;2022-08-19T09:35:43;15.48;;;6.20;;
56653;SDS011;45096;52.302;4.634;2022-08-19T09:38:09;10.13;;;6.10;;
56653;SDS011;45096;52.302;4.634;2022-08-19T09:40:34;9.13;;;5.13;;
56653;SDS011;45096;52.302;4.634;2022-08-19T09:42:59;7.25;;;4.55;;
56653;SDS011;45096;52.302;4.634;2022-08-19T09:45:25;11.52;;;5.25;;
56653;SDS011;45096;52.302;4.634;2022-08-19T09:47:50;9.68;;;4.47;;
56653;SDS011;45096;52.302;4.634;2022-08-19T09:50:17;8.95;;;4.40;;
56653;SDS011;45096;52.302;4.634;2022-08-19T09:52:44;5.72;;;4.22;;
56653;SDS011;45096;52.302;4.634;2022-08-19T09:55:10;10.40;;;4.45;;
56653;SDS011;45096;52.302;4.634;2022-08-19T09:57:35;8.18;;;3.80;;
56653;SDS011;45096;52.302;4.634;2022-08-19T10:00:02;6.22;;;4.55;;
56653;SDS011;45096;52.302;4.634;2022-08-19T10:02:29;5.93;;;4.38;;
56653;SDS011;45096;52.302;4.634;2022-08-19T10:04:54;6.88;;;4.03;;
56653;SDS011;45096;52.302;4.634;2022-08-19T10:07:20;9.05;;;4.40;;
56653;SDS011;45096;52.302;4.634;2022-08-19T10:09:46;5.63;;;4.20;;
56653;SDS011;45096;52.302;4.634;2022-08-19T10:12:12;8.10;;;4.35;;
56653;SDS011;45096;52.302;4.634;2022-08-19T10:14:37;8.00;;;4.32;;
56653;SDS011;45096;52.302;4.634;2022-08-19T10:17:03;7.80;;;4.40;;
56653;SDS011;45096;52.302;4.634;2022-08-19T10:19:28;5.57;;;3.95;;
56653;SDS011;45096;52.302;4.634;2022-08-19T10:21:54;5.32;;;4.15;;
56653;SDS011;45096;52.302;4.634;2022-08-19T10:24:19;3.92;;;3.53;;
56653;SDS011;45096;52.302;4.634;2022-08-19T10:26:46;5.22;;;3.75;;
56653;SDS011;45096;52.302;4.634;2022-08-19T10:29:11;5.28;;;4.50;;
56653;SDS011;45096;52.302;4.634;2022-08-19T10:31:37;6.57;;;4.63;;
56653;SDS011;45096;52.302;4.634;2022-08-19T10:34:02;4.60;;;4.15;;
56653;SDS011;45096;52.302;4.634;2022-08-19T10:36:28;4.70;;;3.65;;
56653;SDS011;45096;52.302;4.634;2022-08-19T10:38:56;5.93;;;3.95;;
56653;SDS011;45096;52.302;4.634;2022-08-19T10:41:23;4.47;;;4.07;;
56653;SDS011;45096;52.302;4.634;2022-08-19T10:43:51;4.22;;;3.83;;
56653;SDS011;45096;52.302;4.634;2022-08-19T10:46:17;4.93;;;3.95;;
56653;SDS011;45096;52.302;4.634;2022-08-19T10:48:43;5.28;;;4.00;;
56653;SDS011;45096;52.302;4.634;2022-08-19T10:51:09;4.43;;;3.95;;
56653;SDS011;45096;52.302;4.634;2022-08-19T10:53:34;3.95;;;3.53;;
56653;SDS011;45096;52.302;4.634;2022-08-19T10:56:00;4.22;;;3.83;;
56653;SDS011;45096;52.302;4.634;2022-08-19T10:58:25;3.65;;;3.30;;
56653;SDS011;45096;52.302;4.634;2022-08-19T11:00:53;3.58;;;3.35;;
56653;SDS011;45096;52.302;4.634;2022-08-19T11:03:19;3.92;;;3.22;;
56653;SDS011;45096;52.302;4.634;2022-08-19T11:05:44;4.70;;;3.47;;
56653;SDS011;45096;52.302;4.634;2022-08-19T11:08:10;4.88;;;3.00;;
56653;SDS011;45096;52.302;4.634;2022-08-19T11:10:35;3.40;;;3.10;;
56653;SDS011;45096;52.302;4.634;2022-08-19T11:13:01;5.05;;;3.20;;
56653;SDS011;45096;52.302;4.634;2022-08-19T11:15:26;3.88;;;3.15;;
56653;SDS011;45096;52.302;4.634;2022-08-19T11:17:53;3.63;;;3.22;;
56653;SDS011;45096;52.302;4.634;2022-08-19T11:20:18;3.10;;;2.80;;
56653;SDS011;45096;52.302;4.634;2022-08-19T11:22:44;3.72;;;2.80;;
56653;SDS011;45096;52.302;4.634;2022-08-19T11:25:09;4.55;;;2.67;;
56653;SDS011;45096;52.302;4.634;2022-08-19T11:27:37;5.10;;;3.03;;
56653;SDS011;45096;52.302;4.634;2022-08-19T11:30:04;4.38;;;2.75;;
56653;SDS011;45096;52.302;4.634;2022-08-19T11:32:30;2.90;;;2.63;;
56653;SDS011;45096;52.302;4.634;2022-08-19T11:34:57;3.40;;;2.70;;
56653;SDS011;45096;52.302;4.634;2022-08-19T11:37:22;2.33;;;2.22;;
56653;SDS011;45096;52.302;4.634;2022-08-19T11:39:48;4.15;;;2.40;;
56653;SDS011;45096;52.302;4.634;2022-08-19T11:42:13;4.35;;;2.72;;
56653;SDS011;45096;52.302;4.634;2022-08-19T11:44:38;1.95;;;1.88;;
56653;SDS011;45096;52.302;4.634;2022-08-19T11:47:04;2.72;;;2.53;;
56653;SDS011;45096;52.302;4.634;2022-08-19T11:49:29;2.33;;;2.15;;
56653;SDS011;45096;52.302;4.634;2022-08-19T11:51:56;2.67;;;2.47;;
56653;SDS011;45096;52.302;4.634;2022-08-19T11:54:21;2.53;;;2.35;;
56653;SDS011;45096;52.302;4.634;2022-08-19T11:56:47;2.83;;;2.22;;
56653;SDS011;45096;52.302;4.634;2022-08-19T11:59:12;3.35;;;2.17;;
56653;SDS011;45096;52.302;4.634;2022-08-19T12:01:38;2.83;;;1.95;;
56653;SDS011;45096;52.302;4.634;2022-08-19T12:04:03;3.22;;;2.45;;
56653;SDS011;45096;52.302;4.634;2022-08-19T12:06:29;2.25;;;1.95;;
56653;SDS011;45096;52.302;4.634;2022-08-19T12:08:58;2.35;;;1.88;;
56653;SDS011;45096;52.302;4.634;2022-08-19T12:11:25;2.10;;;1.70;;
56653;SDS011;45096;52.302;4.634;2022-08-19T12:13:50;2.33;;;1.63;;
56653;SDS011;45096;52.302;4.634;2022-08-19T12:16:17;2.35;;;2.00;;
56653;SDS011;45096;52.302;4.634;2022-08-19T12:18:44;2.20;;;1.85;;
56653;SDS011;45096;52.302;4.634;2022-08-19T12:21:10;3.03;;;1.83;;
56653;SDS011;45096;52.302;4.634;2022-08-19T12:23:35;2.38;;;1.90;;
56653;SDS011;45096;52.302;4.634;2022-08-19T12:26:02;1.73;;;1.60;;
56653;SDS011;45096;52.302;4.634;2022-08-19T12:28:28;2.70;;;1.98;;
56653;SDS011;45096;52.302;4.634;2022-08-19T12:30:53;2.15;;;1.90;;
56653;SDS011;45096;52.302;4.634;2022-08-19T12:33:18;3.30;;;1.90;;
56653;SDS011;45096;52.302;4.634;2022-08-19T12:35:44;3.38;;;1.65;;
56653;SDS011;45096;52.302;4.634;2022-08-19T12:38:10;2.08;;;1.98;;
56653;SDS011;45096;52.302;4.634;2022-08-19T12:40:36;1.92;;;1.80;;
56653;SDS011;45096;52.302;4.634;2022-08-19T12:43:03;2.05;;;1.83;;
56653;SDS011;45096;52.302;4.634;2022-08-19T12:45:28;1.48;;;1.38;;
56653;SDS011;45096;52.302;4.634;2022-08-19T12:47:53;1.75;;;1.67;;
56653;SDS011;45096;52.302;4.634;2022-08-19T12:50:19;2.33;;;1.80;;
56653;SDS011;45096;52.302;4.634;2022-08-19T12:52:44;4.22;;;1.90;;
56653;SDS011;45096;52.302;4.634;2022-08-19T12:55:10;2.10;;;1.83;;
56653;SDS011;45096;52.302;4.634;2022-08-19T12:57:35;1.50;;;1.45;;
56653;SDS011;45096;52.302;4.634;2022-08-19T13:00:04;1.73;;;1.60;;
56653;SDS011;45096;52.302;4.634;2022-08-19T13:02:32;1.48;;;1.48;;
56653;SDS011;45096;52.302;4.634;2022-08-19T13:04:58;1.30;;;1.20;;
56653;SDS011;45096;52.302;4.634;2022-08-19T13:07:23;1.75;;;1.65;;
56653;SDS011;45096;52.302;4.634;2022-08-19T13:09:50;2.72;;;2.20;;
56653;SDS011;45096;52.302;4.634;2022-08-19T13:12:16;1.50;;;1.45;;
56653;SDS011;45096;52.302;4.634;2022-08-19T13:14:41;1.95;;;1.85;;
56653;SDS011;45096;52.302;4.634;2022-08-19T13:17:08;2.15;;;2.00;;
56653;SDS011;45096;52.302;4.634;2022-08-19T13:19:35;2.00;;;1.90;;
56653;SDS011;45096;52.302;4.634;2022-08-19T13:22:01;1.70;;;1.60;;
56653;SDS011;45096;52.302;4.634;2022-08-19T13:24:26;2.67;;;1.92;;
56653;SDS011;45096;52.302;4.634;2022-08-19T13:26:51;3.30;;;1.52;;
56653;SDS011;45096;52.302;4.634;2022-08-19T13:29:17;1.65;;;1.58;;
56653;SDS011;45096;52.302;4.634;2022-08-19T13:31:42;1.52;;;1.42;;
56653;SDS011;45096;52.302;4.634;2022-08-19T13:34:09;1.73;;;1.65;;
56653;SDS011;45096;52.302;4.634;2022-08-19T13:36:35;1.50;;;1.40;;
56653;SDS011;45096;52.302;4.634;2022-08-19T13:39:02;1.73;;;1.30;;
56653;SDS011;45096;52.302;4.634;2022-08-19T13:41:27;1.40;;;1.40;;
56653;SDS011;45096;52.302;4.634;2022-08-19T13:43:53;1.25;;;1.25;;
56653;SDS011;45096;52.302;4.634;2022-08-19T13:46:18;2.00;;;1.77;;
56653;SDS011;45096;52.302;4.634;2022-08-19T13:48:44;2.67;;;1.77;;
56653;SDS011;45096;52.302;4.634;2022-08-19T13:51:10;1.75;;;1.65;;
56653;SDS011;45096;52.302;4.634;2022-08-19T13:53:36;2.60;;;2.40;;
56653;SDS011;45096;52.302;4.634;2022-08-19T13:56:04;1.58;;;1.48;;
56653;SDS011;45096;52.302;4.634;2022-08-19T13:58:30;1.80;;;1.70;;
56653;SDS011;45096;52.302;4.634;2022-08-19T14:00:55;2.33;;;2.03;;
56653;SDS011;45096;52.302;4.634;2022-08-19T14:03:21;1.80;;;1.70;;
56653;SDS011;45096;52.302;4.634;2022-08-19T14:05:46;1.90;;;1.80;;
56653;SDS011;45096;52.302;4.634;2022-08-19T14:08:13;1.60;;;1.60;;
56653;SDS011;45096;52.302;4.634;2022-08-19T14:10:38;1.60;;;1.50;;
56653;SDS011;45096;52.302;4.634;2022-08-19T14:13:04;1.92;;;1.85;;
56653;SDS011;45096;52.302;4.634;2022-08-19T14:15:29;1.52;;;1.42;;
56653;SDS011;45096;52.302;4.634;2022-08-19T14:17:55;1.88;;;1.77;;
56653;SDS011;45096;52.302;4.634;2022-08-19T14:20:21;2.67;;;2.47;;
56653;SDS011;45096;52.302;4.634;2022-08-19T14:22:47;2.15;;;2.05;;
56653;SDS011;45096;52.302;4.634;2022-08-19T14:25:15;2.47;;;2.35;;
56653;SDS011;45096;52.302;4.634;2022-08-19T14:27:42;2.40;;;2.13;;
56653;SDS011;45096;52.302;4.634;2022-08-19T14:30:08;3.72;;;2.00;;
56653;SDS011;45096;52.302;4.634;2022-08-19T14:32:35;2.10;;;2.00;;
56653;SDS011;45096;52.302;4.634;2022-08-19T14:35:00;2.55;;;2.35;;
56653;SDS011;45096;52.302;4.634;2022-08-19T14:37:25;3.05;;;2.85;;